sensor_id;sensor_type;location;lat;lon;timestamp;P1;durP1;ratioP1;P2;durP2;ratioP2
18166;SDS011;9208;42.688;23.404;2023-07-16T00:02:08;7.43;;;6.73;;
18166;SDS011;9208;42.688;23.404;2023-07-16T00:04:33;7.37;;;6.77;;
18166;SDS011;9208;42.688;23.404;2023-07-16T00:06:59;8.50;;;6.37;;
18166;SDS011;9208;42.688;23.404;2023-07-16T00:09:25;7.60;;;6.00;;
18166;SDS011;9208;42.688;23.404;2023-07-16T00:11:50;8.40;;;6.53;;
18166;SDS011;9208;42.688;23.404;2023-07-16T00:14:15;6.43;;;5.83;;
18166;SDS011;9208;42.688;23.404;2023-07-16T00:16:40;6.70;;;6.10;;
18166;SDS011;9208;42.688;23.404;2023-07-16T00:19:06;6.80;;;6.10;;
18166;SDS011;9208;42.688;23.404;2023-07-16T00:21:31;7.13;;;5.77;;
18166;SDS011;9208;42.688;23.404;2023-07-16T00:23:56;6.63;;;6.03;;
18166;SDS011;9208;42.688;23.404;2023-07-16T00:26:22;6.27;;;5.50;;
18166;SDS011;9208;42.688;23.404;2023-07-16T00:28:47;7.17;;;6.43;;
18166;SDS011;9208;42.688;23.404;2023-07-16T00:31:12;7.13;;;5.67;;
18166;SDS011;9208;42.688;23.404;2023-07-16T00:33:37;5.90;;;5.07;;
18166;SDS011;9208;42.688;23.404;2023-07-16T00:36:03;6.97;;;5.37;;
18166;SDS011;9208;42.688;23.404;2023-07-16T00:38:28;5.43;;;4.87;;
18166;SDS011;9208;42.688;23.404;2023-07-16T00:40:55;5.70;;;5.20;;
18166;SDS011;9208;42.688;23.404;2023-07-16T00:43:20;6.23;;;5.13;;
18166;SDS011;9208;42.688;23.404;2023-07-16T00:45:45;6.07;;;5.40;;
18166;SDS011;9208;42.688;23.404;2023-07-16T00:48:11;5.60;;;5.20;;
18166;SDS011;9208;42.688;23.404;2023-07-16T00:50:37;7.17;;;4.73;;
18166;SDS011;9208;42.688;23.404;2023-07-16T00:53:05;8.03;;;5.03;;
18166;SDS011;9208;42.688;23.404;2023-07-16T00:55:30;5.57;;;5.07;;
18166;SDS011;9208;42.688;23.404;2023-07-16T00:57:57;7.07;;;5.03;;
18166;SDS011;9208;42.688;23.404;2023-07-16T01:00:24;6.57;;;5.20;;
18166;SDS011;9208;42.688;23.404;2023-07-16T01:02:50;7.27;;;5.17;;
18166;SDS011;9208;42.688;23.404;2023-07-16T01:05:18;5.63;;;5.10;;
18166;SDS011;9208;42.688;23.404;2023-07-16T01:07:46;5.93;;;4.80;;
18166;SDS011;9208;42.688;23.404;2023-07-16T01:10:16;5.30;;;4.80;;
18166;SDS011;9208;42.688;23.404;2023-07-16T01:12:42;5.60;;;5.00;;
18166;SDS011;9208;42.688;23.404;2023-07-16T01:15:08;4.80;;;4.33;;
18166;SDS011;9208;42.688;23.404;2023-07-16T01:17:33;6.80;;;4.77;;
18166;SDS011;9208;42.688;23.404;2023-07-16T01:19:59;4.50;;;4.17;;
18166;SDS011;9208;42.688;23.404;2023-07-16T01:22:34;5.07;;;4.60;;
18166;SDS011;9208;42.688;23.404;2023-07-16T01:25:05;6.20;;;4.60;;
18166;SDS011;9208;42.688;23.404;2023-07-16T01:30:16;5.13;;;4.63;;
18166;SDS011;9208;42.688;23.404;2023-07-16T01:32:44;5.00;;;4.60;;
18166;SDS011;9208;42.688;23.404;2023-07-16T01:35:09;4.23;;;3.87;;
18166;SDS011;9208;42.688;23.404;2023-07-16T01:37:35;5.00;;;4.20;;
18166;SDS011;9208;42.688;23.404;2023-07-16T01:40:01;5.00;;;4.33;;
18166;SDS011;9208;42.688;23.404;2023-07-16T01:42:26;6.07;;;4.23;;
18166;SDS011;9208;42.688;23.404;2023-07-16T01:44:52;4.33;;;4.00;;
18166;SDS011;9208;42.688;23.404;2023-07-16T01:47:23;5.87;;;4.17;;
18166;SDS011;9208;42.688;23.404;2023-07-16T01:49:49;6.73;;;4.33;;
18166;SDS011;9208;42.688;23.404;2023-07-16T01:52:14;5.80;;;3.93;;
18166;SDS011;9208;42.688;23.404;2023-07-16T01:54:43;4.60;;;4.20;;
18166;SDS011;9208;42.688;23.404;2023-07-16T01:57:08;4.77;;;4.03;;
18166;SDS011;9208;42.688;23.404;2023-07-16T01:59:33;4.40;;;4.00;;
18166;SDS011;9208;42.688;23.404;2023-07-16T02:01:59;4.30;;;4.00;;
18166;SDS011;9208;42.688;23.404;2023-07-16T02:04:24;5.83;;;3.87;;
18166;SDS011;9208;42.688;23.404;2023-07-16T02:06:49;4.30;;;4.00;;
18166;SDS011;9208;42.688;23.404;2023-07-16T02:09:14;6.73;;;4.20;;
18166;SDS011;9208;42.688;23.404;2023-07-16T02:11:40;6.13;;;4.27;;
18166;SDS011;9208;42.688;23.404;2023-07-16T02:14:05;5.87;;;3.80;;
18166;SDS011;9208;42.688;23.404;2023-07-16T02:16:30;6.40;;;3.70;;
18166;SDS011;9208;42.688;23.404;2023-07-16T02:18:55;5.40;;;4.00;;
18166;SDS011;9208;42.688;23.404;2023-07-16T02:21:21;7.20;;;4.03;;
18166;SDS011;9208;42.688;23.404;2023-07-16T02:23:46;4.37;;;3.93;;
18166;SDS011;9208;42.688;23.404;2023-07-16T02:26:11;4.77;;;3.87;;
18166;SDS011;9208;42.688;23.404;2023-07-16T02:28:36;5.03;;;3.80;;
18166;SDS011;9208;42.688;23.404;2023-07-16T02:31:02;4.40;;;4.00;;
18166;SDS011;9208;42.688;23.404;2023-07-16T02:33:28;4.67;;;3.90;;
18166;SDS011;9208;42.688;23.404;2023-07-16T02:35:53;4.53;;;3.70;;
18166;SDS011;9208;42.688;23.404;2023-07-16T02:38:18;3.73;;;3.43;;
18166;SDS011;9208;42.688;23.404;2023-07-16T02:40:47;6.13;;;3.93;;
18166;SDS011;9208;42.688;23.404;2023-07-16T02:43:12;4.40;;;4.00;;
18166;SDS011;9208;42.688;23.404;2023-07-16T02:45:38;4.57;;;4.17;;
18166;SDS011;9208;42.688;23.404;2023-07-16T02:48:03;4.20;;;3.90;;
18166;SDS011;9208;42.688;23.404;2023-07-16T02:50:29;4.80;;;4.13;;
18166;SDS011;9208;42.688;23.404;2023-07-16T02:52:54;5.13;;;3.97;;
18166;SDS011;9208;42.688;23.404;2023-07-16T02:55:19;4.93;;;4.53;;
18166;SDS011;9208;42.688;23.404;2023-07-16T02:57:44;5.00;;;4.30;;
18166;SDS011;9208;42.688;23.404;2023-07-16T03:00:10;5.47;;;4.33;;
18166;SDS011;9208;42.688;23.404;2023-07-16T03:02:35;4.87;;;4.43;;
18166;SDS011;9208;42.688;23.404;2023-07-16T03:05:01;5.33;;;4.83;;
18166;SDS011;9208;42.688;23.404;2023-07-16T03:07:26;5.37;;;4.97;;
18166;SDS011;9208;42.688;23.404;2023-07-16T03:09:51;5.50;;;4.00;;
18166;SDS011;9208;42.688;23.404;2023-07-16T03:12:16;6.50;;;4.77;;
18166;SDS011;9208;42.688;23.404;2023-07-16T03:14:42;6.23;;;4.67;;
18166;SDS011;9208;42.688;23.404;2023-07-16T03:17:08;5.40;;;4.90;;
18166;SDS011;9208;42.688;23.404;2023-07-16T03:19:33;5.60;;;4.77;;
18166;SDS011;9208;42.688;23.404;2023-07-16T03:21:58;5.80;;;5.20;;
18166;SDS011;9208;42.688;23.404;2023-07-16T03:24:23;5.40;;;4.90;;
18166;SDS011;9208;42.688;23.404;2023-07-16T03:26:49;5.87;;;4.70;;
18166;SDS011;9208;42.688;23.404;2023-07-16T03:29:14;5.37;;;4.87;;
18166;SDS011;9208;42.688;23.404;2023-07-16T03:31:39;5.80;;;5.30;;
18166;SDS011;9208;42.688;23.404;2023-07-16T03:34:04;5.20;;;4.70;;
18166;SDS011;9208;42.688;23.404;2023-07-16T03:36:30;5.13;;;4.63;;
18166;SDS011;9208;42.688;23.404;2023-07-16T03:38:55;5.93;;;5.27;;
18166;SDS011;9208;42.688;23.404;2023-07-16T03:41:20;6.70;;;5.50;;
18166;SDS011;9208;42.688;23.404;2023-07-16T03:43:45;5.97;;;5.20;;
18166;SDS011;9208;42.688;23.404;2023-07-16T03:46:11;5.40;;;4.90;;
18166;SDS011;9208;42.688;23.404;2023-07-16T03:48:36;5.70;;;5.20;;
18166;SDS011;9208;42.688;23.404;2023-07-16T03:51:01;6.40;;;5.43;;
18166;SDS011;9208;42.688;23.404;2023-07-16T03:53:26;7.93;;;5.17;;
18166;SDS011;9208;42.688;23.404;2023-07-16T03:55:52;5.20;;;4.80;;
18166;SDS011;9208;42.688;23.404;2023-07-16T03:58:17;6.27;;;4.83;;
18166;SDS011;9208;42.688;23.404;2023-07-16T04:00:42;5.80;;;5.23;;
18166;SDS011;9208;42.688;23.404;2023-07-16T04:03:09;5.33;;;4.93;;
18166;SDS011;9208;42.688;23.404;2023-07-16T04:05:34;4.87;;;4.47;;
18166;SDS011;9208;42.688;23.404;2023-07-16T04:07:59;7.67;;;5.20;;
18166;SDS011;9208;42.688;23.404;2023-07-16T04:10:25;4.93;;;4.53;;
18166;SDS011;9208;42.688;23.404;2023-07-16T04:12:50;5.60;;;5.10;;
18166;SDS011;9208;42.688;23.404;2023-07-16T04:15:15;6.13;;;5.03;;
18166;SDS011;9208;42.688;23.404;2023-07-16T04:17:41;5.47;;;5.00;;
18166;SDS011;9208;42.688;23.404;2023-07-16T04:20:06;5.40;;;4.93;;
18166;SDS011;9208;42.688;23.404;2023-07-16T04:22:33;5.70;;;5.13;;
18166;SDS011;9208;42.688;23.404;2023-07-16T04:24:58;4.80;;;4.40;;
18166;SDS011;9208;42.688;23.404;2023-07-16T04:27:23;5.73;;;5.07;;
18166;SDS011;9208;42.688;23.404;2023-07-16T04:29:49;5.53;;;4.90;;
18166;SDS011;9208;42.688;23.404;2023-07-16T04:32:14;5.10;;;4.70;;
18166;SDS011;9208;42.688;23.404;2023-07-16T04:34:39;5.63;;;5.13;;
18166;SDS011;9208;42.688;23.404;2023-07-16T04:37:05;6.43;;;5.27;;
18166;SDS011;9208;42.688;23.404;2023-07-16T04:39:30;5.43;;;4.83;;
18166;SDS011;9208;42.688;23.404;2023-07-16T04:41:55;7.63;;;4.93;;
18166;SDS011;9208;42.688;23.404;2023-07-16T04:44:21;5.40;;;4.80;;
18166;SDS011;9208;42.688;23.404;2023-07-16T04:46:46;5.30;;;4.63;;
18166;SDS011;9208;42.688;23.404;2023-07-16T04:49:11;5.90;;;4.67;;
18166;SDS011;9208;42.688;23.404;2023-07-16T04:51:36;4.97;;;4.53;;
18166;SDS011;9208;42.688;23.404;2023-07-16T04:54:02;5.13;;;4.63;;
18166;SDS011;9208;42.688;23.404;2023-07-16T04:56:27;5.10;;;4.60;;
18166;SDS011;9208;42.688;23.404;2023-07-16T04:58:52;5.87;;;4.80;;
18166;SDS011;9208;42.688;23.404;2023-07-16T05:01:17;4.90;;;4.40;;
18166;SDS011;9208;42.688;23.404;2023-07-16T05:03:43;5.60;;;4.60;;
18166;SDS011;9208;42.688;23.404;2023-07-16T05:06:08;4.63;;;4.30;;
18166;SDS011;9208;42.688;23.404;2023-07-16T05:08:34;6.40;;;5.03;;
18166;SDS011;9208;42.688;23.404;2023-07-16T05:10:59;5.17;;;4.63;;
18166;SDS011;9208;42.688;23.404;2023-07-16T05:13:24;5.17;;;4.67;;
18166;SDS011;9208;42.688;23.404;2023-07-16T05:15:49;5.17;;;4.77;;
18166;SDS011;9208;42.688;23.404;2023-07-16T05:18:15;4.83;;;4.43;;
18166;SDS011;9208;42.688;23.404;2023-07-16T05:20:41;4.77;;;4.43;;
18166;SDS011;9208;42.688;23.404;2023-07-16T05:23:06;6.47;;;4.63;;
18166;SDS011;9208;42.688;23.404;2023-07-16T05:25:31;4.37;;;3.97;;
18166;SDS011;9208;42.688;23.404;2023-07-16T05:27:56;5.13;;;4.30;;
18166;SDS011;9208;42.688;23.404;2023-07-16T05:30:22;4.67;;;4.27;;
18166;SDS011;9208;42.688;23.404;2023-07-16T05:32:47;4.90;;;4.50;;
18166;SDS011;9208;42.688;23.404;2023-07-16T05:35:12;4.50;;;4.20;;
18166;SDS011;9208;42.688;23.404;2023-07-16T05:37:38;7.07;;;4.73;;
18166;SDS011;9208;42.688;23.404;2023-07-16T05:40:03;4.77;;;4.27;;
18166;SDS011;9208;42.688;23.404;2023-07-16T05:42:29;5.30;;;4.40;;
18166;SDS011;9208;42.688;23.404;2023-07-16T05:44:54;7.23;;;4.57;;
18166;SDS011;9208;42.688;23.404;2023-07-16T05:47:19;5.33;;;4.30;;
18166;SDS011;9208;42.688;23.404;2023-07-16T05:49:44;4.20;;;3.80;;
18166;SDS011;9208;42.688;23.404;2023-07-16T05:52:10;4.50;;;4.10;;
18166;SDS011;9208;42.688;23.404;2023-07-16T05:54:35;4.33;;;4.00;;
18166;SDS011;9208;42.688;23.404;2023-07-16T05:57:01;4.60;;;4.20;;
18166;SDS011;9208;42.688;23.404;2023-07-16T05:59:26;7.20;;;4.20;;
18166;SDS011;9208;42.688;23.404;2023-07-16T06:01:51;4.37;;;3.90;;
18166;SDS011;9208;42.688;23.404;2023-07-16T06:04:17;8.80;;;3.57;;
18166;SDS011;9208;42.688;23.404;2023-07-16T06:06:42;4.10;;;3.80;;
18166;SDS011;9208;42.688;23.404;2023-07-16T06:09:07;4.77;;;4.27;;
18166;SDS011;9208;42.688;23.404;2023-07-16T06:11:32;4.60;;;4.20;;
18166;SDS011;9208;42.688;23.404;2023-07-16T06:13:58;4.47;;;4.07;;
18166;SDS011;9208;42.688;23.404;2023-07-16T06:16:23;4.50;;;4.10;;
18166;SDS011;9208;42.688;23.404;2023-07-16T06:18:49;5.50;;;4.10;;
18166;SDS011;9208;42.688;23.404;2023-07-16T06:21:14;6.67;;;4.17;;
18166;SDS011;9208;42.688;23.404;2023-07-16T06:23:40;4.63;;;4.03;;
18166;SDS011;9208;42.688;23.404;2023-07-16T06:26:05;4.43;;;3.90;;
18166;SDS011;9208;42.688;23.404;2023-07-16T06:28:30;4.83;;;3.87;;
18166;SDS011;9208;42.688;23.404;2023-07-16T06:30:56;5.50;;;3.97;;
18166;SDS011;9208;42.688;23.404;2023-07-16T06:33:21;6.07;;;4.00;;
18166;SDS011;9208;42.688;23.404;2023-07-16T06:35:46;4.53;;;4.13;;
18166;SDS011;9208;42.688;23.404;2023-07-16T06:38:12;3.60;;;3.30;;
18166;SDS011;9208;42.688;23.404;2023-07-16T06:40:38;4.13;;;3.73;;
18166;SDS011;9208;42.688;23.404;2023-07-16T06:43:03;5.83;;;3.70;;
18166;SDS011;9208;42.688;23.404;2023-07-16T06:45:28;3.50;;;3.20;;
18166;SDS011;9208;42.688;23.404;2023-07-16T06:47:53;5.73;;;3.80;;
18166;SDS011;9208;42.688;23.404;2023-07-16T06:50:18;5.50;;;3.90;;
18166;SDS011;9208;42.688;23.404;2023-07-16T06:52:44;5.37;;;3.90;;
18166;SDS011;9208;42.688;23.404;2023-07-16T06:55:09;4.63;;;3.87;;
18166;SDS011;9208;42.688;23.404;2023-07-16T06:57:34;3.90;;;3.60;;
18166;SDS011;9208;42.688;23.404;2023-07-16T06:59:59;4.13;;;3.80;;
18166;SDS011;9208;42.688;23.404;2023-07-16T07:02:25;3.93;;;3.63;;
18166;SDS011;9208;42.688;23.404;2023-07-16T07:04:50;7.53;;;3.83;;
18166;SDS011;9208;42.688;23.404;2023-07-16T07:07:16;3.93;;;3.50;;
18166;SDS011;9208;42.688;23.404;2023-07-16T07:09:41;4.20;;;3.90;;
18166;SDS011;9208;42.688;23.404;2023-07-16T07:12:07;4.00;;;3.53;;
18166;SDS011;9208;42.688;23.404;2023-07-16T07:14:32;7.80;;;3.70;;
18166;SDS011;9208;42.688;23.404;2023-07-16T07:16:58;4.27;;;3.73;;
18166;SDS011;9208;42.688;23.404;2023-07-16T07:19:23;4.10;;;3.70;;
18166;SDS011;9208;42.688;23.404;2023-07-16T07:21:48;4.23;;;3.90;;
18166;SDS011;9208;42.688;23.404;2023-07-16T07:24:14;5.30;;;3.70;;
18166;SDS011;9208;42.688;23.404;2023-07-16T07:26:39;4.40;;;3.73;;
18166;SDS011;9208;42.688;23.404;2023-07-16T07:29:04;4.23;;;3.83;;
18166;SDS011;9208;42.688;23.404;2023-07-16T07:31:29;4.53;;;4.13;;
18166;SDS011;9208;42.688;23.404;2023-07-16T07:33:55;5.87;;;4.10;;
18166;SDS011;9208;42.688;23.404;2023-07-16T07:36:22;3.97;;;3.63;;
18166;SDS011;9208;42.688;23.404;2023-07-16T07:38:47;4.17;;;3.73;;
18166;SDS011;9208;42.688;23.404;2023-07-16T07:41:12;5.03;;;4.53;;
18166;SDS011;9208;42.688;23.404;2023-07-16T07:43:38;5.73;;;4.23;;
18166;SDS011;9208;42.688;23.404;2023-07-16T07:46:03;4.03;;;3.53;;
18166;SDS011;9208;42.688;23.404;2023-07-16T07:48:28;5.13;;;4.20;;
18166;SDS011;9208;42.688;23.404;2023-07-16T07:50:54;4.87;;;4.40;;
18166;SDS011;9208;42.688;23.404;2023-07-16T07:53:19;5.87;;;3.87;;
18166;SDS011;9208;42.688;23.404;2023-07-16T07:55:45;4.47;;;4.07;;
18166;SDS011;9208;42.688;23.404;2023-07-16T07:58:10;4.50;;;4.00;;
18166;SDS011;9208;42.688;23.404;2023-07-16T08:00:36;6.43;;;4.60;;
18166;SDS011;9208;42.688;23.404;2023-07-16T08:03:01;5.00;;;4.50;;
18166;SDS011;9208;42.688;23.404;2023-07-16T08:05:26;5.07;;;4.27;;
18166;SDS011;9208;42.688;23.404;2023-07-16T08:07:52;5.50;;;4.20;;
18166;SDS011;9208;42.688;23.404;2023-07-16T08:10:18;4.43;;;4.03;;
18166;SDS011;9208;42.688;23.404;2023-07-16T08:12:43;5.33;;;4.40;;
18166;SDS011;9208;42.688;23.404;2023-07-16T08:15:09;5.03;;;4.40;;
18166;SDS011;9208;42.688;23.404;2023-07-16T08:17:39;4.60;;;4.13;;
18166;SDS011;9208;42.688;23.404;2023-07-16T08:20:04;5.70;;;4.50;;
18166;SDS011;9208;42.688;23.404;2023-07-16T08:22:30;4.90;;;4.40;;
18166;SDS011;9208;42.688;23.404;2023-07-16T08:24:55;6.43;;;4.60;;
18166;SDS011;9208;42.688;23.404;2023-07-16T08:27:20;5.73;;;5.10;;
18166;SDS011;9208;42.688;23.404;2023-07-16T08:29:45;5.40;;;4.87;;
18166;SDS011;9208;42.688;23.404;2023-07-16T08:32:11;5.53;;;5.03;;
18166;SDS011;9208;42.688;23.404;2023-07-16T08:34:36;6.13;;;5.00;;
18166;SDS011;9208;42.688;23.404;2023-07-16T08:37:01;12.37;;;5.40;;
18166;SDS011;9208;42.688;23.404;2023-07-16T08:39:27;5.47;;;4.97;;
18166;SDS011;9208;42.688;23.404;2023-07-16T08:41:52;7.00;;;5.33;;
18166;SDS011;9208;42.688;23.404;2023-07-16T08:44:18;6.77;;;4.97;;
18166;SDS011;9208;42.688;23.404;2023-07-16T08:46:43;8.20;;;5.13;;
18166;SDS011;9208;42.688;23.404;2023-07-16T08:49:09;7.30;;;5.70;;
18166;SDS011;9208;42.688;23.404;2023-07-16T08:51:36;6.50;;;5.20;;
18166;SDS011;9208;42.688;23.404;2023-07-16T08:54:01;6.90;;;5.30;;
18166;SDS011;9208;42.688;23.404;2023-07-16T08:56:26;5.97;;;5.43;;
18166;SDS011;9208;42.688;23.404;2023-07-16T08:58:53;5.73;;;5.33;;
18166;SDS011;9208;42.688;23.404;2023-07-16T09:01:20;7.73;;;5.37;;
18166;SDS011;9208;42.688;23.404;2023-07-16T09:03:45;6.60;;;5.90;;
18166;SDS011;9208;42.688;23.404;2023-07-16T09:06:11;6.20;;;5.60;;
18166;SDS011;9208;42.688;23.404;2023-07-16T09:08:36;8.53;;;6.20;;
18166;SDS011;9208;42.688;23.404;2023-07-16T09:11:02;10.70;;;5.77;;
18166;SDS011;9208;42.688;23.404;2023-07-16T09:13:28;6.37;;;5.87;;
18166;SDS011;9208;42.688;23.404;2023-07-16T09:15:54;7.03;;;5.72;;
18166;SDS011;9208;42.688;23.404;2023-07-16T09:18:24;6.00;;;5.50;;
18166;SDS011;9208;42.688;23.404;2023-07-16T09:20:55;6.20;;;5.60;;
18166;SDS011;9208;42.688;23.404;2023-07-16T09:23:23;6.57;;;5.90;;
18166;SDS011;9208;42.688;23.404;2023-07-16T09:25:49;6.67;;;6.07;;
18166;SDS011;9208;42.688;23.404;2023-07-16T09:28:15;6.40;;;5.90;;
18166;SDS011;9208;42.688;23.404;2023-07-16T09:30:43;7.20;;;5.80;;
18166;SDS011;9208;42.688;23.404;2023-07-16T09:33:15;8.87;;;5.93;;
18166;SDS011;9208;42.688;23.404;2023-07-16T09:35:41;9.30;;;6.57;;
18166;SDS011;9208;42.688;23.404;2023-07-16T09:38:07;7.00;;;6.40;;
18166;SDS011;9208;42.688;23.404;2023-07-16T09:40:32;7.00;;;6.40;;
18166;SDS011;9208;42.688;23.404;2023-07-16T09:42:58;9.93;;;7.57;;
18166;SDS011;9208;42.688;23.404;2023-07-16T09:45:23;9.43;;;6.70;;
18166;SDS011;9208;42.688;23.404;2023-07-16T09:47:48;9.20;;;6.73;;
18166;SDS011;9208;42.688;23.404;2023-07-16T09:50:14;7.00;;;6.27;;
18166;SDS011;9208;42.688;23.404;2023-07-16T09:52:39;8.90;;;6.90;;
18166;SDS011;9208;42.688;23.404;2023-07-16T09:55:05;8.10;;;6.43;;
18166;SDS011;9208;42.688;23.404;2023-07-16T09:57:35;6.90;;;6.22;;
18166;SDS011;9208;42.688;23.404;2023-07-16T10:00:02;6.53;;;5.93;;
18166;SDS011;9208;42.688;23.404;2023-07-16T10:02:32;6.50;;;6.00;;
18166;SDS011;9208;42.688;23.404;2023-07-16T10:04:57;7.07;;;5.90;;
18166;SDS011;9208;42.688;23.404;2023-07-16T10:07:23;8.73;;;6.30;;
18166;SDS011;9208;42.688;23.404;2023-07-16T10:09:52;6.93;;;6.32;;
18166;SDS011;9208;42.688;23.404;2023-07-16T10:12:19;8.40;;;6.15;;
18166;SDS011;9208;42.688;23.404;2023-07-16T10:14:46;8.40;;;6.50;;
18166;SDS011;9208;42.688;23.404;2023-07-16T10:17:15;6.78;;;6.18;;
18166;SDS011;9208;42.688;23.404;2023-07-16T10:22:34;8.95;;;7.25;;
18166;SDS011;9208;42.688;23.404;2023-07-16T10:25:01;7.45;;;6.75;;
18166;SDS011;9208;42.688;23.404;2023-07-16T10:27:33;10.65;;;7.55;;
18166;SDS011;9208;42.688;23.404;2023-07-16T10:29:59;8.30;;;7.50;;
18166;SDS011;9208;42.688;23.404;2023-07-16T10:32:26;8.65;;;7.13;;
18166;SDS011;9208;42.688;23.404;2023-07-16T10:34:52;8.00;;;7.30;;
18166;SDS011;9208;42.688;23.404;2023-07-16T10:37:18;8.07;;;7.38;;
18166;SDS011;9208;42.688;23.404;2023-07-16T10:39:47;8.07;;;7.30;;
18166;SDS011;9208;42.688;23.404;2023-07-16T10:42:12;8.40;;;7.55;;
18166;SDS011;9208;42.688;23.404;2023-07-16T10:44:37;8.85;;;7.90;;
18166;SDS011;9208;42.688;23.404;2023-07-16T10:47:04;8.30;;;7.50;;
18166;SDS011;9208;42.688;23.404;2023-07-16T10:49:29;9.77;;;7.82;;
18166;SDS011;9208;42.688;23.404;2023-07-16T10:51:55;8.57;;;7.78;;
18166;SDS011;9208;42.688;23.404;2023-07-16T10:54:20;8.13;;;7.32;;
18166;SDS011;9208;42.688;23.404;2023-07-16T10:56:45;8.70;;;7.63;;
18166;SDS011;9208;42.688;23.404;2023-07-16T10:59:13;8.38;;;7.68;;
18166;SDS011;9208;42.688;23.404;2023-07-16T11:01:38;8.40;;;7.70;;
18166;SDS011;9208;42.688;23.404;2023-07-16T11:04:07;8.43;;;7.70;;
18166;SDS011;9208;42.688;23.404;2023-07-16T11:06:32;11.48;;;8.10;;
18166;SDS011;9208;42.688;23.404;2023-07-16T11:09:10;7.63;;;7.03;;
18166;SDS011;9208;42.688;23.404;2023-07-16T11:11:36;9.55;;;7.70;;
18166;SDS011;9208;42.688;23.404;2023-07-16T11:14:04;7.80;;;7.15;;
18166;SDS011;9208;42.688;23.404;2023-07-16T11:16:36;8.60;;;7.88;;
18166;SDS011;9208;42.688;23.404;2023-07-16T11:19:05;7.97;;;7.22;;
18166;SDS011;9208;42.688;23.404;2023-07-16T11:21:30;10.27;;;7.93;;
18166;SDS011;9208;42.688;23.404;2023-07-16T11:23:56;9.30;;;8.25;;
18166;SDS011;9208;42.688;23.404;2023-07-16T11:26:32;7.68;;;7.00;;
18166;SDS011;9208;42.688;23.404;2023-07-16T11:28:57;8.10;;;7.30;;
18166;SDS011;9208;42.688;23.404;2023-07-16T11:31:22;8.70;;;7.72;;
18166;SDS011;9208;42.688;23.404;2023-07-16T11:33:48;9.18;;;8.10;;
18166;SDS011;9208;42.688;23.404;2023-07-16T11:36:13;10.40;;;7.75;;
18166;SDS011;9208;42.688;23.404;2023-07-16T11:38:39;7.70;;;6.82;;
18166;SDS011;9208;42.688;23.404;2023-07-16T11:41:04;8.40;;;7.60;;
18166;SDS011;9208;42.688;23.404;2023-07-16T11:43:33;9.50;;;7.90;;
18166;SDS011;9208;42.688;23.404;2023-07-16T11:45:59;9.15;;;7.05;;
18166;SDS011;9208;42.688;23.404;2023-07-16T11:48:24;8.30;;;7.60;;
18166;SDS011;9208;42.688;23.404;2023-07-16T11:50:49;8.57;;;7.20;;
18166;SDS011;9208;42.688;23.404;2023-07-16T11:53:14;8.80;;;7.15;;
18166;SDS011;9208;42.688;23.404;2023-07-16T11:55:41;8.48;;;7.15;;
18166;SDS011;9208;42.688;23.404;2023-07-16T11:58:07;7.88;;;7.15;;
18166;SDS011;9208;42.688;23.404;2023-07-16T12:00:32;7.97;;;7.20;;
18166;SDS011;9208;42.688;23.404;2023-07-16T12:02:57;9.70;;;7.20;;
18166;SDS011;9208;42.688;23.404;2023-07-16T12:05:22;12.60;;;7.82;;
18166;SDS011;9208;42.688;23.404;2023-07-16T12:07:52;8.45;;;7.55;;
18166;SDS011;9208;42.688;23.404;2023-07-16T12:10:18;8.18;;;7.40;;
18166;SDS011;9208;42.688;23.404;2023-07-16T12:12:43;8.30;;;7.50;;
18166;SDS011;9208;42.688;23.404;2023-07-16T12:15:08;10.48;;;8.05;;
18166;SDS011;9208;42.688;23.404;2023-07-16T12:17:38;8.50;;;7.70;;
18166;SDS011;9208;42.688;23.404;2023-07-16T12:20:03;8.45;;;7.53;;
18166;SDS011;9208;42.688;23.404;2023-07-16T12:22:29;7.85;;;7.15;;
18166;SDS011;9208;42.688;23.404;2023-07-16T12:24:54;9.18;;;7.68;;
18166;SDS011;9208;42.688;23.404;2023-07-16T12:27:20;8.20;;;7.40;;
18166;SDS011;9208;42.688;23.404;2023-07-16T12:29:50;8.10;;;7.25;;
18166;SDS011;9208;42.688;23.404;2023-07-16T12:32:17;9.73;;;7.78;;
18166;SDS011;9208;42.688;23.404;2023-07-16T12:34:42;8.75;;;7.45;;
18166;SDS011;9208;42.688;23.404;2023-07-16T12:37:07;11.82;;;7.63;;
18166;SDS011;9208;42.688;23.404;2023-07-16T12:39:33;8.30;;;7.45;;
18166;SDS011;9208;42.688;23.404;2023-07-16T12:41:58;8.30;;;7.20;;
18166;SDS011;9208;42.688;23.404;2023-07-16T12:44:23;7.88;;;7.22;;
18166;SDS011;9208;42.688;23.404;2023-07-16T12:46:48;8.18;;;7.10;;
18166;SDS011;9208;42.688;23.404;2023-07-16T12:49:15;7.93;;;6.88;;
18166;SDS011;9208;42.688;23.404;2023-07-16T12:51:40;8.75;;;6.95;;
18166;SDS011;9208;42.688;23.404;2023-07-16T12:54:05;9.00;;;7.05;;
18166;SDS011;9208;42.688;23.404;2023-07-16T12:56:30;7.60;;;6.82;;
18166;SDS011;9208;42.688;23.404;2023-07-16T12:58:56;8.13;;;7.07;;
18166;SDS011;9208;42.688;23.404;2023-07-16T13:01:21;7.30;;;6.65;;
18166;SDS011;9208;42.688;23.404;2023-07-16T13:03:47;7.85;;;7.03;;
18166;SDS011;9208;42.688;23.404;2023-07-16T13:06:12;7.82;;;7.03;;
18166;SDS011;9208;42.688;23.404;2023-07-16T13:08:37;9.27;;;7.35;;
18166;SDS011;9208;42.688;23.404;2023-07-16T13:11:02;7.93;;;6.82;;
18166;SDS011;9208;42.688;23.404;2023-07-16T13:13:28;7.47;;;6.88;;
18166;SDS011;9208;42.688;23.404;2023-07-16T13:15:53;7.70;;;6.97;;
18166;SDS011;9208;42.688;23.404;2023-07-16T13:18:19;11.50;;;8.38;;
18166;SDS011;9208;42.688;23.404;2023-07-16T13:20:44;10.75;;;7.43;;
18166;SDS011;9208;42.688;23.404;2023-07-16T13:23:09;7.85;;;7.05;;
18166;SDS011;9208;42.688;23.404;2023-07-16T13:25:35;8.30;;;7.10;;
18166;SDS011;9208;42.688;23.404;2023-07-16T13:28:01;9.52;;;6.88;;
18166;SDS011;9208;42.688;23.404;2023-07-16T13:30:26;7.88;;;7.18;;
18166;SDS011;9208;42.688;23.404;2023-07-16T13:32:52;7.35;;;6.65;;
18166;SDS011;9208;42.688;23.404;2023-07-16T13:35:20;7.72;;;7.00;;
18166;SDS011;9208;42.688;23.404;2023-07-16T13:37:45;7.38;;;6.78;;
18166;SDS011;9208;42.688;23.404;2023-07-16T13:40:11;8.88;;;7.65;;
18166;SDS011;9208;42.688;23.404;2023-07-16T13:42:36;8.30;;;6.97;;
18166;SDS011;9208;42.688;23.404;2023-07-16T13:45:01;7.60;;;6.68;;
18166;SDS011;9208;42.688;23.404;2023-07-16T13:47:27;8.73;;;7.88;;
18166;SDS011;9208;42.688;23.404;2023-07-16T13:49:52;10.43;;;6.88;;
18166;SDS011;9208;42.688;23.404;2023-07-16T13:52:17;7.13;;;6.45;;
18166;SDS011;9208;42.688;23.404;2023-07-16T13:54:43;7.78;;;6.63;;
18166;SDS011;9208;42.688;23.404;2023-07-16T13:57:08;7.65;;;6.88;;
18166;SDS011;9208;42.688;23.404;2023-07-16T13:59:34;9.27;;;6.53;;
18166;SDS011;9208;42.688;23.404;2023-07-16T14:01:59;9.65;;;6.30;;
18166;SDS011;9208;42.688;23.404;2023-07-16T14:04:26;6.93;;;6.22;;
18166;SDS011;9208;42.688;23.404;2023-07-16T14:06:51;7.68;;;6.85;;
18166;SDS011;9208;42.688;23.404;2023-07-16T14:09:17;8.32;;;6.55;;
18166;SDS011;9208;42.688;23.404;2023-07-16T14:11:43;6.80;;;6.13;;
18166;SDS011;9208;42.688;23.404;2023-07-16T14:14:10;7.10;;;6.40;;
18166;SDS011;9208;42.688;23.404;2023-07-16T14:16:35;6.90;;;6.20;;
18166;SDS011;9208;42.688;23.404;2023-07-16T14:19:00;7.05;;;6.25;;
18166;SDS011;9208;42.688;23.404;2023-07-16T14:21:25;7.65;;;6.90;;
18166;SDS011;9208;42.688;23.404;2023-07-16T14:23:51;7.72;;;7.13;;
18166;SDS011;9208;42.688;23.404;2023-07-16T14:26:16;7.43;;;6.68;;
18166;SDS011;9208;42.688;23.404;2023-07-16T14:28:41;7.60;;;6.90;;
18166;SDS011;9208;42.688;23.404;2023-07-16T14:31:06;7.72;;;6.95;;
18166;SDS011;9208;42.688;23.404;2023-07-16T14:33:33;7.88;;;6.50;;
18166;SDS011;9208;42.688;23.404;2023-07-16T14:35:58;7.68;;;6.93;;
18166;SDS011;9208;42.688;23.404;2023-07-16T14:38:23;7.75;;;6.68;;
18166;SDS011;9208;42.688;23.404;2023-07-16T14:40:49;7.18;;;6.57;;
18166;SDS011;9208;42.688;23.404;2023-07-16T14:43:16;7.50;;;6.80;;
18166;SDS011;9208;42.688;23.404;2023-07-16T14:45:41;7.43;;;6.80;;